sensor_id;sensor_type;location;lat;lon;timestamp;pressure;altitude;pressure_sealevel;temperature;humidity
78149;BME280;67396;42.664;23.382;2023-03-31T00:01:11;94900.09;;;10.52;44.37
78149;BME280;67396;42.664;23.382;2023-03-31T00:03:37;94896.53;;;10.41;44.98
78149;BME280;67396;42.664;23.382;2023-03-31T00:06:10;94901.59;;;10.39;45.12
78149;BME280;67396;42.664;23.382;2023-03-31T00:08:36;94901.22;;;10.37;45.48
78149;BME280;67396;42.664;23.382;2023-03-31T00:11:05;94901.22;;;10.37;45.67
78149;BME280;67396;42.664;23.382;2023-03-31T00:13:35;94898.84;;;10.39;45.40
78149;BME280;67396;42.664;23.382;2023-03-31T00:16:08;94901.56;;;10.32;45.25
78149;BME280;67396;42.664;23.382;2023-03-31T00:18:34;94903.56;;;10.35;45.18
78149;BME280;67396;42.664;23.382;2023-03-31T00:21:11;94888.59;;;10.25;45.72
78149;BME280;67396;42.664;23.382;2023-03-31T00:23:52;94895.16;;;10.13;46.38
78149;BME280;67396;42.664;23.382;2023-03-31T00:26:18;94895.50;;;10.01;46.82
78149;BME280;67396;42.664;23.382;2023-03-31T00:28:44;94895.13;;;10.06;46.51
78149;BME280;67396;42.664;23.382;2023-03-31T00:31:09;94899.03;;;10.05;46.42
78149;BME280;67396;42.664;23.382;2023-03-31T00:33:35;94896.72;;;10.07;46.25
78149;BME280;67396;42.664;23.382;2023-03-31T00:36:00;94896.31;;;10.09;46.12
78149;BME280;67396;42.664;23.382;2023-03-31T00:38:30;94887.66;;;10.03;45.40
78149;BME280;67396;42.664;23.382;2023-03-31T00:40:57;94883.75;;;10.01;45.78
78149;BME280;67396;42.664;23.382;2023-03-31T00:43:59;94877.81;;;9.92;46.01
78149;BME280;67396;42.664;23.382;2023-03-31T00:46:31;94882.06;;;9.86;46.23
78149;BME280;67396;42.664;23.382;2023-03-31T00:48:58;94875.72;;;9.71;46.75
78149;BME280;67396;42.664;23.382;2023-03-31T00:51:26;94878.88;;;9.76;46.49
78149;BME280;67396;42.664;23.382;2023-03-31T00:53:56;94870.22;;;9.67;47.08
78149;BME280;67396;42.664;23.382;2023-03-31T00:56:25;94867.47;;;9.67;46.05
78149;BME280;67396;42.664;23.382;2023-03-31T00:58:56;94868.66;;;9.70;45.67
78149;BME280;67396;42.664;23.382;2023-03-31T01:01:24;94864.38;;;9.72;44.86
78149;BME280;67396;42.664;23.382;2023-03-31T01:03:51;94868.69;;;9.73;45.11
78149;BME280;67396;42.664;23.382;2023-03-31T01:06:17;94862.03;;;9.78;45.30
78149;BME280;67396;42.664;23.382;2023-03-31T01:08:47;94858.97;;;9.87;45.20
78149;BME280;67396;42.664;23.382;2023-03-31T01:11:15;94858.97;;;9.83;45.29
78149;BME280;67396;42.664;23.382;2023-03-31T01:13:42;94859.34;;;9.85;45.64
78149;BME280;67396;42.664;23.382;2023-03-31T01:16:10;94862.53;;;9.94;45.35
78149;BME280;67396;42.664;23.382;2023-03-31T01:18:36;94862.59;;;10.01;45.00
78149;BME280;67396;42.664;23.382;2023-03-31T01:27:10;94865.75;;;10.07;44.64
78149;BME280;67396;42.664;23.382;2023-03-31T01:46:30;94880.34;;;9.63;47.79
78149;BME280;67396;42.664;23.382;2023-03-31T01:49:13;94884.25;;;9.62;48.13
78149;BME280;67396;42.664;23.382;2023-03-31T01:51:52;94892.03;;;9.53;49.32
78149;BME280;67396;42.664;23.382;2023-03-31T01:54:29;94894.66;;;9.42;49.11
78149;BME280;67396;42.664;23.382;2023-03-31T01:57:02;94906.09;;;9.52;49.34
78149;BME280;67396;42.664;23.382;2023-03-31T01:59:37;94902.13;;;9.46;49.66
78149;BME280;67396;42.664;23.382;2023-03-31T02:02:14;94895.50;;;9.50;49.61
78149;BME280;67396;42.664;23.382;2023-03-31T02:04:52;94893.63;;;9.58;49.28
78149;BME280;67396;42.664;23.382;2023-03-31T02:07:27;94895.97;;;9.59;49.10
78149;BME280;67396;42.664;23.382;2023-03-31T02:09:58;94890.38;;;9.45;50.17
78149;BME280;67396;42.664;23.382;2023-03-31T02:12:27;94900.09;;;9.35;50.17
78149;BME280;67396;42.664;23.382;2023-03-31T02:14:56;94897.34;;;9.35;50.70
78149;BME280;67396;42.664;23.382;2023-03-31T02:17:24;94900.50;;;9.37;50.70
78149;BME280;67396;42.664;23.382;2023-03-31T02:20:04;94905.94;;;9.34;51.25
78149;BME280;67396;42.664;23.382;2023-03-31T02:22:34;94917.28;;;9.32;51.73
78149;BME280;67396;42.664;23.382;2023-03-31T02:25:03;94922.31;;;9.23;52.39
78149;BME280;67396;42.664;23.382;2023-03-31T02:27:32;94923.25;;;9.01;54.17
78149;BME280;67396;42.664;23.382;2023-03-31T02:30:00;94935.50;;;8.77;53.60
78149;BME280;67396;42.664;23.382;2023-03-31T02:35:00;94927.72;;;8.83;53.83
78149;BME280;67396;42.664;23.382;2023-03-31T02:37:27;94930.41;;;8.76;56.01
78149;BME280;67396;42.664;23.382;2023-03-31T02:39:54;94932.75;;;8.77;56.01
78149;BME280;67396;42.664;23.382;2023-03-31T02:42:21;94939.03;;;8.81;56.51
78149;BME280;67396;42.664;23.382;2023-03-31T02:44:47;94944.81;;;8.73;58.08
78149;BME280;67396;42.664;23.382;2023-03-31T02:47:14;94946.44;;;8.44;60.87
78149;BME280;67396;42.664;23.382;2023-03-31T02:49:44;94949.63;;;8.49;61.65
78149;BME280;67396;42.664;23.382;2023-03-31T03:00:26;94921.78;;;8.14;61.94
78149;BME280;67396;42.664;23.382;2023-03-31T03:03:12;94922.22;;;7.89;62.90
78149;BME280;67396;42.664;23.382;2023-03-31T03:11:46;94905.22;;;8.63;59.95
78149;BME280;67396;42.664;23.382;2023-03-31T03:14:26;94898.28;;;8.73;59.74
78149;BME280;67396;42.664;23.382;2023-03-31T03:16:58;94897.56;;;8.76;59.72
78149;BME280;67396;42.664;23.382;2023-03-31T03:19:26;94878.94;;;8.92;58.60
78149;BME280;67396;42.664;23.382;2023-03-31T03:21:52;94878.38;;;9.13;57.58
78149;BME280;67396;42.664;23.382;2023-03-31T03:24:18;94869.13;;;9.28;56.57
78149;BME280;67396;42.664;23.382;2023-03-31T03:26:44;94864.06;;;9.33;56.64
78149;BME280;67396;42.664;23.382;2023-03-31T03:29:10;94868.03;;;9.39;56.05
78149;BME280;67396;42.664;23.382;2023-03-31T03:31:40;94871.16;;;9.41;58.26
78149;BME280;67396;42.664;23.382;2023-03-31T03:34:05;94873.94;;;9.45;56.91
78149;BME280;67396;42.664;23.382;2023-03-31T03:36:31;94867.69;;;9.41;56.44
78149;BME280;67396;42.664;23.382;2023-03-31T03:38:57;94866.91;;;9.44;55.64
78149;BME280;67396;42.664;23.382;2023-03-31T03:41:23;94855.97;;;9.48;55.51
78149;BME280;67396;42.664;23.382;2023-03-31T03:43:49;94868.84;;;9.43;55.62
78149;BME280;67396;42.664;23.382;2023-03-31T03:46:14;94864.19;;;9.48;55.58
78149;BME280;67396;42.664;23.382;2023-03-31T03:48:39;94861.00;;;9.38;56.33
78149;BME280;67396;42.664;23.382;2023-03-31T03:51:05;94867.38;;;9.05;57.37
78149;BME280;67396;42.664;23.382;2023-03-31T03:53:31;94863.69;;;8.91;57.71
78149;BME280;67396;42.664;23.382;2023-03-31T03:55:57;94857.13;;;8.99;57.15
78149;BME280;67396;42.664;23.382;2023-03-31T03:58:23;94857.16;;;9.02;56.98
78149;BME280;67396;42.664;23.382;2023-03-31T04:00:49;94860.16;;;8.90;57.05
78149;BME280;67396;42.664;23.382;2023-03-31T04:03:15;94864.47;;;8.88;58.99
78149;BME280;67396;42.664;23.382;2023-03-31T04:05:40;94873.97;;;9.01;58.57
78149;BME280;67396;42.664;23.382;2023-03-31T04:08:06;94865.91;;;9.19;57.07
78149;BME280;67396;42.664;23.382;2023-03-31T04:10:33;94860.19;;;9.38;56.13
78149;BME280;67396;42.664;23.382;2023-03-31T04:12:59;94869.22;;;9.42;56.57
78149;BME280;67396;42.664;23.382;2023-03-31T04:15:24;94865.38;;;9.50;56.50
78149;BME280;67396;42.664;23.382;2023-03-31T04:17:50;94875.25;;;9.58;56.90
78149;BME280;67396;42.664;23.382;2023-03-31T04:20:19;94880.41;;;9.67;57.46
78149;BME280;67396;42.664;23.382;2023-03-31T04:22:45;94878.88;;;9.73;56.24
78149;BME280;67396;42.664;23.382;2023-03-31T04:25:15;94876.56;;;9.82;55.35
78149;BME280;67396;42.664;23.382;2023-03-31T04:27:51;94870.72;;;9.84;54.83
78149;BME280;67396;42.664;23.382;2023-03-31T04:30:24;94871.53;;;9.95;55.30
78149;BME280;67396;42.664;23.382;2023-03-31T04:32:57;94863.69;;;9.90;55.85
78149;BME280;67396;42.664;23.382;2023-03-31T04:35:26;94873.88;;;9.89;56.35
78149;BME280;67396;42.664;23.382;2023-03-31T04:37:53;94871.50;;;9.88;56.44
78149;BME280;67396;42.664;23.382;2023-03-31T04:40:24;94867.56;;;9.85;56.61
78149;BME280;67396;42.664;23.382;2023-03-31T04:42:50;94857.72;;;9.77;57.70
78149;BME280;67396;42.664;23.382;2023-03-31T04:45:16;94866.28;;;9.65;57.88
78149;BME280;67396;42.664;23.382;2023-03-31T04:47:42;94862.31;;;9.59;57.88
78149;BME280;67396;42.664;23.382;2023-03-31T04:50:09;94852.13;;;9.56;58.31
78149;BME280;67396;42.664;23.382;2023-03-31T04:52:35;94857.28;;;9.68;57.53
78149;BME280;67396;42.664;23.382;2023-03-31T04:55:01;94853.81;;;9.74;57.63
78149;BME280;67396;42.664;23.382;2023-03-31T04:57:26;94862.41;;;9.76;57.19
78149;BME280;67396;42.664;23.382;2023-03-31T04:59:52;94850.72;;;9.79;57.69
78149;BME280;67396;42.664;23.382;2023-03-31T05:02:17;94850.00;;;9.90;57.09
78149;BME280;67396;42.664;23.382;2023-03-31T05:04:49;94851.22;;;9.99;57.53
78149;BME280;67396;42.664;23.382;2023-03-31T05:07:15;94855.94;;;10.06;57.36
78149;BME280;67396;42.664;23.382;2023-03-31T05:09:42;94855.53;;;10.00;56.55
78149;BME280;67396;42.664;23.382;2023-03-31T05:12:07;94853.94;;;9.96;57.15
78149;BME280;67396;42.664;23.382;2023-03-31T05:14:33;94843.75;;;9.93;57.56
78149;BME280;67396;42.664;23.382;2023-03-31T05:16:58;94842.97;;;9.96;57.37
78149;BME280;67396;42.664;23.382;2023-03-31T05:19:23;94840.59;;;9.94;58.00
78149;BME280;67396;42.664;23.382;2023-03-31T05:21:49;94832.00;;;9.96;57.51
78149;BME280;67396;42.664;23.382;2023-03-31T05:24:15;94825.69;;;9.85;57.89
78149;BME280;67396;42.664;23.382;2023-03-31T05:26:40;94835.88;;;9.84;57.73
78149;BME280;67396;42.664;23.382;2023-03-31T05:29:08;94823.75;;;9.89;58.23
78149;BME280;67396;42.664;23.382;2023-03-31T05:31:33;94819.09;;;10.00;58.18
78149;BME280;67396;42.664;23.382;2023-03-31T05:33:59;94820.31;;;10.06;57.35
78149;BME280;67396;42.664;23.382;2023-03-31T05:36:25;94836.75;;;10.06;57.17
78149;BME280;67396;42.664;23.382;2023-03-31T05:38:51;94823.34;;;9.90;58.07
78149;BME280;67396;42.664;23.382;2023-03-31T05:41:16;94824.16;;;9.94;58.13
78149;BME280;67396;42.664;23.382;2023-03-31T05:43:42;94824.94;;;9.95;58.57
78149;BME280;67396;42.664;23.382;2023-03-31T05:46:08;94810.09;;;9.99;58.05
78149;BME280;67396;42.664;23.382;2023-03-31T05:48:34;94815.88;;;9.84;59.24
78149;BME280;67396;42.664;23.382;2023-03-31T05:51:01;94825.31;;;9.90;60.99
78149;BME280;67396;42.664;23.382;2023-03-31T05:53:27;94814.78;;;9.99;58.77
78149;BME280;67396;42.664;23.382;2023-03-31T05:56:00;94818.31;;;9.99;58.79
78149;BME280;67396;42.664;23.382;2023-03-31T05:58:27;94826.19;;;10.11;57.75
78149;BME280;67396;42.664;23.382;2023-03-31T06:01:19;94827.78;;;10.09;58.78
78149;BME280;67396;42.664;23.382;2023-03-31T06:03:47;94828.16;;;10.14;58.92
78149;BME280;67396;42.664;23.382;2023-03-31T06:06:13;94820.41;;;10.20;58.09
78149;BME280;67396;42.664;23.382;2023-03-31T06:08:41;94826.72;;;10.31;56.29
78149;BME280;67396;42.664;23.382;2023-03-31T06:11:10;94831.44;;;10.34;56.64
78149;BME280;67396;42.664;23.382;2023-03-31T06:13:37;94830.66;;;10.37;56.77
78149;BME280;67396;42.664;23.382;2023-03-31T06:16:03;94831.44;;;10.38;56.44
78149;BME280;67396;42.664;23.382;2023-03-31T06:18:30;94834.16;;;10.27;57.07
78149;BME280;67396;42.664;23.382;2023-03-31T06:20:57;94826.75;;;10.42;56.16
78149;BME280;67396;42.664;23.382;2023-03-31T06:23:24;94818.94;;;10.44;56.25
78149;BME280;67396;42.664;23.382;2023-03-31T06:25:49;94825.22;;;10.51;56.68
78149;BME280;67396;42.664;23.382;2023-03-31T06:28:15;94822.84;;;10.43;56.89
78149;BME280;67396;42.664;23.382;2023-03-31T06:30:41;94825.19;;;10.48;56.99
78149;BME280;67396;42.664;23.382;2023-03-31T06:33:07;94828.34;;;10.50;57.19
78149;BME280;67396;42.664;23.382;2023-03-31T06:35:36;94833.06;;;10.46;57.81
78149;BME280;67396;42.664;23.382;2023-03-31T06:38:01;94831.47;;;10.48;58.41
78149;BME280;67396;42.664;23.382;2023-03-31T06:40:26;94829.16;;;10.65;56.38
78149;BME280;67396;42.664;23.382;2023-03-31T06:42:52;94829.94;;;10.54;56.96
78149;BME280;67396;42.664;23.382;2023-03-31T06:45:17;94829.19;;;10.68;56.79
78149;BME280;67396;42.664;23.382;2023-03-31T06:47:43;94830.81;;;10.98;55.98
78149;BME280;67396;42.664;23.382;2023-03-31T06:50:09;94832.41;;;11.20;54.83
78149;BME280;67396;42.664;23.382;2023-03-31T06:52:35;94843.78;;;11.29;54.45
78149;BME280;67396;42.664;23.382;2023-03-31T06:55:01;94836.72;;;11.21;54.46
78149;BME280;67396;42.664;23.382;2023-03-31T06:57:27;94840.22;;;10.89;55.76
78149;BME280;67396;42.664;23.382;2023-03-31T06:59:52;94834.75;;;11.11;55.30
78149;BME280;67396;42.664;23.382;2023-03-31T07:02:18;94836.31;;;11.12;55.00
78149;BME280;67396;42.664;23.382;2023-03-31T07:04:44;94825.75;;;11.31;54.70
78149;BME280;67396;42.664;23.382;2023-03-31T07:07:09;94818.28;;;11.50;54.61
78149;BME280;67396;42.664;23.382;2023-03-31T07:09:35;94808.81;;;11.61;53.23
78149;BME280;67396;42.664;23.382;2023-03-31T07:12:00;94807.63;;;11.94;52.82
78149;BME280;67396;42.664;23.382;2023-03-31T07:14:29;94796.41;;;12.48;51.16
78149;BME280;67396;42.664;23.382;2023-03-31T07:16:55;94777.16;;;12.40;51.33
78149;BME280;67396;42.664;23.382;2023-03-31T07:19:20;94779.47;;;12.53;52.09
78149;BME280;67396;42.664;23.382;2023-03-31T07:21:49;94778.16;;;12.78;51.27
78149;BME280;67396;42.664;23.382;2023-03-31T07:24:14;94761.16;;;12.91;51.02
78149;BME280;67396;42.664;23.382;2023-03-31T07:26:40;94741.31;;;13.13;49.67
78149;BME280;67396;42.664;23.382;2023-03-31T07:29:05;94748.38;;;13.63;48.50
78149;BME280;67396;42.664;23.382;2023-03-31T07:31:31;94761.06;;;13.90;48.83
78149;BME280;67396;42.664;23.382;2023-03-31T07:33:56;94767.66;;;14.34;46.75
78149;BME280;67396;42.664;23.382;2023-03-31T07:36:22;94766.34;;;14.76;44.05
78149;BME280;67396;42.664;23.382;2023-03-31T07:38:47;94770.72;;;14.74;44.21
78149;BME280;67396;42.664;23.382;2023-03-31T07:41:17;94760.88;;;14.99;44.27
78149;BME280;67396;42.664;23.382;2023-03-31T07:43:43;94757.63;;;14.78;43.27
78149;BME280;67396;42.664;23.382;2023-03-31T07:46:16;94743.97;;;14.94;44.07
78149;BME280;67396;42.664;23.382;2023-03-31T07:48:58;94742.34;;;14.96;46.34
78149;BME280;67396;42.664;23.382;2023-03-31T07:51:32;94746.03;;;15.13;44.36
78149;BME280;67396;42.664;23.382;2023-03-31T07:53:58;94748.88;;;15.33;42.78
78149;BME280;67396;42.664;23.382;2023-03-31T07:56:24;94747.00;;;15.50;43.06
78149;BME280;67396;42.664;23.382;2023-03-31T07:58:53;94742.03;;;15.41;40.53
78149;BME280;67396;42.664;23.382;2023-03-31T08:01:19;94751.78;;;15.72;41.16
78149;BME280;67396;42.664;23.382;2023-03-31T08:03:46;94739.13;;;15.95;38.85
78149;BME280;67396;42.664;23.382;2023-03-31T08:06:22;94732.88;;;15.91;39.67
78149;BME280;67396;42.664;23.382;2023-03-31T08:08:49;94718.38;;;16.03;39.54
78149;BME280;67396;42.664;23.382;2023-03-31T08:11:15;94726.47;;;15.94;39.41
78149;BME280;67396;42.664;23.382;2023-03-31T08:13:40;94728.81;;;15.95;39.61
78149;BME280;67396;42.664;23.382;2023-03-31T08:16:06;94716.44;;;15.37;39.21
78149;BME280;67396;42.664;23.382;2023-03-31T08:18:31;94722.81;;;14.84;40.57
78149;BME280;67396;42.664;23.382;2023-03-31T08:20:56;94714.00;;;14.35;40.16
78149;BME280;67396;42.664;23.382;2023-03-31T08:23:25;94713.44;;;14.17;40.59
78149;BME280;67396;42.664;23.382;2023-03-31T08:25:51;94716.84;;;13.98;41.81
78149;BME280;67396;42.664;23.382;2023-03-31T08:28:16;94706.25;;;13.92;42.23
78149;BME280;67396;42.664;23.382;2023-03-31T08:30:42;94702.16;;;14.65;41.62
78149;BME280;67396;42.664;23.382;2023-03-31T08:33:08;94708.59;;;14.85;41.31
78149;BME280;67396;42.664;23.382;2023-03-31T08:35:34;94711.78;;;14.53;41.22
78149;BME280;67396;42.664;23.382;2023-03-31T08:38:00;94705.13;;;14.20;41.00
78149;BME280;67396;42.664;23.382;2023-03-31T08:40:28;94701.19;;;13.87;41.63
78149;BME280;67396;42.664;23.382;2023-03-31T08:42:57;94706.84;;;13.73;41.97
78149;BME280;67396;42.664;23.382;2023-03-31T08:45:30;94711.97;;;13.75;41.51
78149;BME280;67396;42.664;23.382;2023-03-31T08:48:01;94705.94;;;13.87;41.83
78149;BME280;67396;42.664;23.382;2023-03-31T08:50:31;94707.16;;;13.82;41.87
78149;BME280;67396;42.664;23.382;2023-03-31T08:53:22;94705.56;;;13.85;42.31
78149;BME280;67396;42.664;23.382;2023-03-31T08:55:53;94701.09;;;13.94;42.51
78149;BME280;67396;42.664;23.382;2023-03-31T08:58:31;94692.16;;;13.83;42.42
78149;BME280;67396;42.664;23.382;2023-03-31T09:04:04;94692.41;;;13.62;42.39
78149;BME280;67396;42.664;23.382;2023-03-31T09:09:29;94678.47;;;13.76;41.91
78149;BME280;67396;42.664;23.382;2023-03-31T09:12:00;94675.78;;;13.69;41.69
78149;BME280;67396;42.664;23.382;2023-03-31T09:14:37;94680.94;;;13.67;41.64
78149;BME280;67396;42.664;23.382;2023-03-31T09:17:27;94678.56;;;13.66;41.84
78149;BME280;67396;42.664;23.382;2023-03-31T09:22:52;94677.69;;;13.72;41.30
78149;BME280;67396;42.664;23.382;2023-03-31T09:25:24;94679.94;;;13.84;41.08
78149;BME280;67396;42.664;23.382;2023-03-31T09:27:52;94681.50;;;13.85;41.43
78149;BME280;67396;42.664;23.382;2023-03-31T09:30:26;94672.72;;;13.94;40.75
78149;BME280;67396;42.664;23.382;2023-03-31T09:32:57;94684.00;;;14.07;40.35
78149;BME280;67396;42.664;23.382;2023-03-31T09:35:30;94670.66;;;14.32;40.35
78149;BME280;67396;42.664;23.382;2023-03-31T09:37:58;94666.69;;;14.33;39.99
78149;BME280;67396;42.664;23.382;2023-03-31T09:40:26;94671.38;;;14.36;40.26
78149;BME280;67396;42.664;23.382;2023-03-31T09:43:17;94667.09;;;14.62;39.81
78149;BME280;67396;42.664;23.382;2023-03-31T09:45:45;94654.69;;;14.97;39.76
78149;BME280;67396;42.664;23.382;2023-03-31T09:48:15;94649.41;;;15.06;38.12
78149;BME280;67396;42.664;23.382;2023-03-31T09:50:46;94638.81;;;15.24;38.47
78149;BME280;67396;42.664;23.382;2023-03-31T09:53:33;94647.81;;;15.05;38.11
78149;BME280;67396;42.664;23.382;2023-03-31T09:56:34;94651.94;;;15.20;38.86
78149;BME280;67396;42.664;23.382;2023-03-31T09:59:32;94648.19;;;15.07;37.85
78149;BME280;67396;42.664;23.382;2023-03-31T10:02:01;94642.06;;;14.96;38.32
78149;BME280;67396;42.664;23.382;2023-03-31T10:04:32;94629.91;;;15.13;38.33
78149;BME280;67396;42.664;23.382;2023-03-31T10:06:59;94646.31;;;15.24;38.87
78149;BME280;67396;42.664;23.382;2023-03-31T10:09:28;94636.50;;;15.42;37.99
78149;BME280;67396;42.664;23.382;2023-03-31T10:12:14;94630.25;;;15.62;38.42
78149;BME280;67396;42.664;23.382;2023-03-31T10:14:44;94627.00;;;15.43;38.07
78149;BME280;67396;42.664;23.382;2023-03-31T10:17:18;94617.69;;;15.34;37.61
78149;BME280;67396;42.664;23.382;2023-03-31T10:19:52;94624.28;;;15.40;38.94
78149;BME280;67396;42.664;23.382;2023-03-31T10:22:42;94619.88;;;15.66;38.69
78149;BME280;67396;42.664;23.382;2023-03-31T10:25:14;94616.97;;;15.73;37.40
78149;BME280;67396;42.664;23.382;2023-03-31T10:27:47;94621.00;;;15.88;36.44
78149;BME280;67396;42.664;23.382;2023-03-31T10:30:20;94614.34;;;15.86;37.22
78149;BME280;67396;42.664;23.382;2023-03-31T10:32:46;94611.00;;;15.94;36.96
78149;BME280;67396;42.664;23.382;2023-03-31T10:35:35;94609.34;;;16.16;36.89
78149;BME280;67396;42.664;23.382;2023-03-31T10:38:04;94615.84;;;15.90;36.51
78149;BME280;67396;42.664;23.382;2023-03-31T10:40:32;94608.16;;;15.78;36.73
78149;BME280;67396;42.664;23.382;2023-03-31T10:43:08;94601.06;;;15.77;36.81
78149;BME280;67396;42.664;23.382;2023-03-31T10:45:49;94591.56;;;15.78;37.08
78149;BME280;67396;42.664;23.382;2023-03-31T10:50:48;94595.69;;;15.70;37.68
78149;BME280;67396;42.664;23.382;2023-03-31T10:53:14;94593.28;;;15.72;37.45
78149;BME280;67396;42.664;23.382;2023-03-31T10:58:20;94600.22;;;15.60;37.13
78149;BME280;67396;42.664;23.382;2023-03-31T11:04:27;94594.94;;;15.46;37.58
78149;BME280;67396;42.664;23.382;2023-03-31T11:10:20;94585.50;;;15.24;39.31
78149;BME280;67396;42.664;23.382;2023-03-31T11:34:28;94543.75;;;15.18;38.46
78149;BME280;67396;42.664;23.382;2023-03-31T11:45:28;94545.03;;;14.90;38.82
78149;BME280;67396;42.664;23.382;2023-03-31T11:48:00;94533.47;;;14.76;38.87
78149;BME280;67396;42.664;23.382;2023-03-31T11:50:34;94540.44;;;14.84;39.19
78149;BME280;67396;42.664;23.382;2023-03-31T11:53:09;94528.50;;;14.87;39.05
78149;BME280;67396;42.664;23.382;2023-03-31T11:55:38;94531.44;;;14.99;38.81
78149;BME280;67396;42.664;23.382;2023-03-31T12:00:37;94524.38;;;15.18;39.38
78149;BME280;67396;42.664;23.382;2023-03-31T12:03:24;94516.84;;;14.99;39.10
78149;BME280;67396;42.664;23.382;2023-03-31T12:06:00;94503.09;;;14.95;39.08
78149;BME280;67396;42.664;23.382;2023-03-31T12:08:41;94508.50;;;15.02;39.83
78149;BME280;67396;42.664;23.382;2023-03-31T12:11:39;94498.44;;;15.12;39.10
78149;BME280;67396;42.664;23.382;2023-03-31T12:14:26;94495.69;;;15.12;39.49
78149;BME280;67396;42.664;23.382;2023-03-31T12:17:03;94499.13;;;15.16;38.51
78149;BME280;67396;42.664;23.382;2023-03-31T12:19:48;94490.38;;;15.21;38.76
78149;BME280;67396;42.664;23.382;2023-03-31T12:22:17;94498.56;;;15.25;38.83
78149;BME280;67396;42.664;23.382;2023-03-31T12:24:44;94491.84;;;15.26;39.03
78149;BME280;67396;42.664;23.382;2023-03-31T12:27:20;94489.78;;;15.30;38.66
78149;BME280;67396;42.664;23.382;2023-03-31T12:29:58;94493.31;;;15.30;38.47
78149;BME280;67396;42.664;23.382;2023-03-31T12:32:38;94480.56;;;15.17;38.07
78149;BME280;67396;42.664;23.382;2023-03-31T12:35:23;94476.22;;;14.96;39.30
78149;BME280;67396;42.664;23.382;2023-03-31T12:43:54;94476.44;;;15.05;38.64
78149;BME280;67396;42.664;23.382;2023-03-31T12:57:30;94429.47;;;15.41;37.93
78149;BME280;67396;42.664;23.382;2023-03-31T13:00:24;94430.09;;;15.49;38.95
78149;BME280;67396;42.664;23.382;2023-03-31T13:05:54;94419.13;;;15.81;36.97
78149;BME280;67396;42.664;23.382;2023-03-31T13:11:36;94406.31;;;15.71;37.16
78149;BME280;67396;42.664;23.382;2023-03-31T13:17:58;94384.34;;;15.80;37.08
78149;BME280;67396;42.664;23.382;2023-03-31T13:20:31;94382.78;;;15.95;37.42
78149;BME280;67396;42.664;23.382;2023-03-31T13:23:20;94371.44;;;16.22;36.95
78149;BME280;67396;42.664;23.382;2023-03-31T13:25:51;94364.06;;;16.32;36.94
78149;BME280;67396;42.664;23.382;2023-03-31T13:28:40;94345.94;;;16.43;36.20
78149;BME280;67396;42.664;23.382;2023-03-31T13:32:15;94347.34;;;16.35;36.25
78149;BME280;67396;42.664;23.382;2023-03-31T13:35:24;94344.59;;;16.19;36.27
78149;BME280;67396;42.664;23.382;2023-03-31T13:38:33;94346.84;;;16.24;36.00
78149;BME280;67396;42.664;23.382;2023-03-31T13:58:38;94301.63;;;16.14;36.32
78149;BME280;67396;42.664;23.382;2023-03-31T14:04:39;94307.31;;;16.24;36.82
78149;BME280;67396;42.664;23.382;2023-03-31T14:07:36;94294.66;;;16.23;37.08
78149;BME280;67396;42.664;23.382;2023-03-31T14:10:02;94304.00;;;16.29;36.20
78149;BME280;67396;42.664;23.382;2023-03-31T14:12:36;94292.91;;;16.29;36.19
78149;BME280;67396;42.664;23.382;2023-03-31T14:15:03;94293.94;;;16.06;37.03
78149;BME280;67396;42.664;23.382;2023-03-31T14:17:38;94295.06;;;16.08;36.87
78149;BME280;67396;42.664;23.382;2023-03-31T14:31:34;94287.06;;;16.27;36.66
78149;BME280;67396;42.664;23.382;2023-03-31T14:34:37;94280.97;;;16.32;36.36
78149;BME280;67396;42.664;23.382;2023-03-31T14:37:09;94274.94;;;16.21;35.96
78149;BME280;67396;42.664;23.382;2023-03-31T14:39:41;94276.34;;;16.12;36.83
78149;BME280;67396;42.664;23.382;2023-03-31T14:42:13;94271.25;;;16.11;36.89
78149;BME280;67396;42.664;23.382;2023-03-31T14:45:25;94267.53;;;16.17;36.61
78149;BME280;67396;42.664;23.382;2023-03-31T14:48:09;94261.72;;;16.12;36.22
78149;BME280;67396;42.664;23.382;2023-03-31T14:50:44;94258.31;;;16.21;36.70
78149;BME280;67396;42.664;23.382;2023-03-31T14:53:18;94254.50;;;16.31;36.08
78149;BME280;67396;42.664;23.382;2023-03-31T14:55:47;94251.28;;;16.32;36.18
78149;BME280;67396;42.664;23.382;2023-03-31T14:58:20;94250.28;;;16.39;36.04
78149;BME280;67396;42.664;23.382;2023-03-31T15:00:48;94240.22;;;16.45;35.78
78149;BME280;67396;42.664;23.382;2023-03-31T15:03:14;94243.34;;;16.47;35.40
78149;BME280;67396;42.664;23.382;2023-03-31T15:05:40;94241.91;;;16.42;36.42
78149;BME280;67396;42.664;23.382;2023-03-31T15:08:17;94238.88;;;16.37;36.84
78149;BME280;67396;42.664;23.382;2023-03-31T15:10:47;94235.66;;;16.38;36.62
78149;BME280;67396;42.664;23.382;2023-03-31T15:13:20;94246.53;;;16.33;37.03
78149;BME280;67396;42.664;23.382;2023-03-31T15:15:48;94240.84;;;16.24;37.19
78149;BME280;67396;42.664;23.382;2023-03-31T15:18:15;94242.75;;;16.27;36.75
78149;BME280;67396;42.664;23.382;2023-03-31T15:20:42;94244.81;;;16.23;36.86
78149;BME280;67396;42.664;23.382;2023-03-31T15:23:27;94240.28;;;16.16;36.81
78149;BME280;67396;42.664;23.382;2023-03-31T15:25:57;94244.03;;;16.09;36.79
78149;BME280;67396;42.664;23.382;2023-03-31T15:28:25;94239.69;;;16.08;37.02
78149;BME280;67396;42.664;23.382;2023-03-31T15:30:54;94233.69;;;16.10;36.88
78149;BME280;67396;42.664;23.382;2023-03-31T15:33:31;94237.06;;;16.17;36.68
78149;BME280;67396;42.664;23.382;2023-03-31T15:35:57;94239.91;;;16.14;36.94
78149;BME280;67396;42.664;23.382;2023-03-31T15:38:26;94241.91;;;16.13;37.06
78149;BME280;67396;42.664;23.382;2023-03-31T15:40:54;94237.59;;;16.12;36.99
78149;BME280;67396;42.664;23.382;2023-03-31T15:46:02;94233.25;;;16.11;37.18
78149;BME280;67396;42.664;23.382;2023-03-31T15:48:35;94229.28;;;16.12;37.02